Time;durP1;ratioP1;P1;durP2;ratioP2;P2;SDS_P1;SDS_P2;PMS_P1;PMS_P2;Temp;Humidity;BMP_temperature;BMP_pressure;BME280_temperature;BME280_humidity;BME280_pressure;Samples;Min_cycle;Max_cycle;Signal;HPM_P1;HPM_P2
2022/12/24 00:02:19;;;;;;;593.43;274.83;;;;;;;;;;4999445;28;20214;-51
2022/12/24 00:04:45;;;;;;;653.83;300.37;;;;;;;;;;4997336;28;20617;-52
2022/12/24 00:07:11;;;;;;;631.60;283.67;;;;;;;;;;4980878;28;20679;-51
2022/12/24 00:09:37;;;;;;;643.77;290.73;;;;;;;;;;4984752;28;20672;-51
2022/12/24 00:12:04;;;;;;;583.57;258.90;;;;;;;;;;5000659;28;20235;-52
2022/12/24 00:14:30;;;;;;;571.77;260.40;;;;;;;;;;5000906;28;20271;-52
2022/12/24 00:16:56;;;;;;;502.57;232.33;;;;;;;;;;5002341;28;20220;-52
2022/12/24 00:19:22;;;;;;;466.90;213.10;;;;;;;;;;4988947;28;20203;-52
2022/12/24 00:21:48;;;;;;;602.57;266.13;;;;;;;;;;5018341;28;20216;-52
2022/12/24 00:24:14;;;;;;;536.23;235.43;;;;;;;;;;5010085;28;20243;-52
2022/12/24 00:26:40;;;;;;;629.20;276.67;;;;;;;;;;5005910;28;20262;-52
2022/12/24 00:29:06;;;;;;;549.00;252.73;;;;;;;;;;5015908;28;20235;-52
2022/12/24 00:31:32;;;;;;;479.43;215.93;;;;;;;;;;4997116;28;20172;-52
2022/12/24 00:33:58;;;;;;;503.57;232.93;;;;;;;;;;4998197;28;20204;-52
2022/12/24 00:36:24;;;;;;;578.77;261.87;;;;;;;;;;5004352;28;20663;-52
2022/12/24 00:38:50;;;;;;;716.60;326.43;;;;;;;;;;4991701;28;20298;-52
2022/12/24 00:41:27;;;;;;;568.37;260.83;;;;;;;;;;4971945;28;20290;-52
2022/12/24 00:44:01;;;;;;;667.73;307.40;;;;;;;;;;4981568;28;20450;-52
2022/12/24 00:46:28;;;;;;;582.60;271.07;;;;;;;;;;4985365;28;20540;-52
2022/12/24 00:48:54;;;;;;;612.20;278.40;;;;;;;;;;4986476;28;20217;-52
2022/12/24 00:51:20;;;;;;;606.30;281.27;;;;;;;;;;4977697;28;20212;-52
2022/12/24 00:53:46;;;;;;;606.70;282.87;;;;;;;;;;4978764;28;20349;-52
2022/12/24 00:56:12;;;;;;;594.10;274.97;;;;;;;;;;4975457;28;21083;-52
2022/12/24 00:58:38;;;;;;;463.77;213.73;;;;;;;;;;4987580;28;20288;-52
2022/12/24 01:01:05;;;;;;;635.20;284.87;;;;;;;;;;4984940;28;20192;-53
2022/12/24 01:03:34;;;;;;;538.70;248.63;;;;;;;;;;4980191;28;20223;-52
2022/12/24 01:06:01;;;;;;;608.90;280.97;;;;;;;;;;4982182;28;20696;-52
2022/12/24 01:08:27;;;;;;;579.50;260.60;;;;;;;;;;4986392;28;20290;-52
2022/12/24 01:10:53;;;;;;;542.57;246.83;;;;;;;;;;4980253;28;20625;-52
2022/12/24 01:13:19;;;;;;;545.17;249.73;;;;;;;;;;4980093;28;20668;-52
2022/12/24 01:15:45;;;;;;;513.50;228.00;;;;;;;;;;4955655;28;20236;-52
2022/12/24 01:18:11;;;;;;;664.53;299.87;;;;;;;;;;4979950;28;20224;-52
2022/12/24 01:20:37;;;;;;;539.07;246.90;;;;;;;;;;4985145;28;20645;-52
2022/12/24 01:23:03;;;;;;;655.77;303.17;;;;;;;;;;4982161;28;20365;-52
2022/12/24 01:25:29;;;;;;;520.43;241.83;;;;;;;;;;4969593;28;20187;-52
2022/12/24 01:27:55;;;;;;;483.00;230.97;;;;;;;;;;4977177;28;20450;-52
2022/12/24 01:30:21;;;;;;;509.53;234.13;;;;;;;;;;4975005;28;20586;-52
2022/12/24 01:32:47;;;;;;;527.23;241.40;;;;;;;;;;5001566;28;20244;-52
2022/12/24 01:35:13;;;;;;;624.60;293.17;;;;;;;;;;4997862;28;20432;-51
2022/12/24 01:37:39;;;;;;;536.43;256.53;;;;;;;;;;4999290;28;20192;-51
2022/12/24 01:45:37;;;;;;;604.00;279.17;;;;;;;;;;4978814;28;20270;-51
2022/12/24 01:48:04;;;;;;;556.60;261.67;;;;;;;;;;4988082;28;20588;-51
2022/12/24 01:50:30;;;;;;;519.20;243.03;;;;;;;;;;4975568;28;20215;-51
2022/12/24 01:52:57;;;;;;;666.53;314.40;;;;;;;;;;4974131;28;20246;-51
2022/12/24 01:55:23;;;;;;;564.23;257.90;;;;;;;;;;4994631;28;20177;-51
2022/12/24 01:57:52;;;;;;;610.10;278.97;;;;;;;;;;4975334;28;21010;-51
2022/12/24 02:00:18;;;;;;;720.90;336.97;;;;;;;;;;4985611;28;20886;-51
2022/12/24 02:02:49;;;;;;;595.60;275.90;;;;;;;;;;4985108;28;20406;-51
2022/12/24 02:05:15;;;;;;;503.63;234.17;;;;;;;;;;4984373;28;20221;-51
2022/12/24 02:07:42;;;;;;;561.77;260.33;;;;;;;;;;4984410;28;20892;-51
2022/12/24 02:10:09;;;;;;;450.13;208.27;;;;;;;;;;4983689;28;20632;-51
2022/12/24 02:12:36;;;;;;;641.83;289.47;;;;;;;;;;4984359;28;20243;-51
2022/12/24 02:15:02;;;;;;;601.23;270.00;;;;;;;;;;4990139;28;20387;-52
2022/12/24 02:17:36;;;;;;;613.73;289.80;;;;;;;;;;4988990;28;20208;-51
2022/12/24 02:20:31;;;;;;;565.33;260.07;;;;;;;;;;4985230;28;20856;-51
2022/12/24 02:23:16;;;;;;;587.73;274.60;;;;;;;;;;4937427;28;20585;-51
2022/12/24 02:25:42;;;;;;;569.23;260.73;;;;;;;;;;4990197;28;20176;-51
2022/12/24 02:28:08;;;;;;;446.27;210.70;;;;;;;;;;4985661;28;20185;-51
2022/12/24 02:30:36;;;;;;;622.33;281.80;;;;;;;;;;4984374;28;20207;-51
2022/12/24 02:33:11;;;;;;;589.77;271.03;;;;;;;;;;4988646;28;20319;-51
2022/12/24 02:35:47;;;;;;;530.37;242.80;;;;;;;;;;5005769;28;20265;-51
2022/12/24 02:41:08;;;;;;;626.87;272.37;;;;;;;;;;4963074;28;20228;-56
2022/12/24 02:43:38;;;;;;;501.73;213.67;;;;;;;;;;4970418;28;20258;-53
2022/12/24 02:46:08;;;;;;;528.47;232.73;;;;;;;;;;4968255;28;20608;-54
2022/12/24 02:48:35;;;;;;;667.60;292.57;;;;;;;;;;4972653;28;20221;-54
2022/12/24 02:51:03;;;;;;;700.50;312.33;;;;;;;;;;4971197;28;20319;-54
2022/12/24 02:53:30;;;;;;;632.33;277.40;;;;;;;;;;4946523;28;20244;-54
2022/12/24 02:56:14;;;;;;;692.70;304.53;;;;;;;;;;4962575;28;20220;-54
2022/12/24 02:58:41;;;;;;;666.33;287.50;;;;;;;;;;4963185;28;20856;-54
2022/12/24 03:01:17;;;;;;;725.63;310.77;;;;;;;;;;4971465;28;20192;-52
2022/12/24 03:03:59;;;;;;;723.27;318.37;;;;;;;;;;4976654;28;20231;-53
2022/12/24 03:06:31;;;;;;;655.83;291.43;;;;;;;;;;4967390;28;20282;-53
2022/12/24 03:09:13;;;;;;;640.03;282.23;;;;;;;;;;4966125;28;20359;-53
2022/12/24 03:11:44;;;;;;;663.37;299.17;;;;;;;;;;4949346;28;20235;-54
2022/12/24 03:14:10;;;;;;;663.17;290.43;;;;;;;;;;4974360;28;20738;-53
2022/12/24 03:16:36;;;;;;;565.77;244.60;;;;;;;;;;4938072;28;20257;-53
2022/12/24 03:19:03;;;;;;;476.40;202.30;;;;;;;;;;4974208;28;20244;-53
2022/12/24 03:21:32;;;;;;;462.73;206.93;;;;;;;;;;4967375;28;20245;-52
2022/12/24 03:23:58;;;;;;;582.67;251.43;;;;;;;;;;4966596;28;20379;-53
2022/12/24 03:26:26;;;;;;;710.33;311.80;;;;;;;;;;4973793;28;20286;-53
2022/12/24 03:28:52;;;;;;;587.73;253.13;;;;;;;;;;4976669;28;20228;-54
2022/12/24 03:31:18;;;;;;;636.53;273.57;;;;;;;;;;4993801;28;20200;-53
2022/12/24 03:33:44;;;;;;;508.80;229.10;;;;;;;;;;4996286;28;20685;-53
2022/12/24 03:36:10;;;;;;;621.03;277.73;;;;;;;;;;4989837;28;20481;-53
2022/12/24 03:38:37;;;;;;;673.73;286.77;;;;;;;;;;4983486;28;20381;-53
2022/12/24 03:41:03;;;;;;;641.00;280.80;;;;;;;;;;4985280;28;20230;-53
2022/12/24 03:43:29;;;;;;;429.07;184.90;;;;;;;;;;5003908;28;20215;-53
2022/12/24 03:45:55;;;;;;;642.80;275.50;;;;;;;;;;5002909;28;20330;-53
2022/12/24 03:48:22;;;;;;;647.67;287.37;;;;;;;;;;5005397;28;21093;-53
2022/12/24 03:50:48;;;;;;;531.13;233.10;;;;;;;;;;4971041;28;20665;-53
2022/12/24 03:53:14;;;;;;;615.97;270.00;;;;;;;;;;4989115;28;20385;-55
2022/12/24 03:55:41;;;;;;;678.87;292.73;;;;;;;;;;4968479;28;20336;-53
2022/12/24 03:58:07;;;;;;;539.53;225.67;;;;;;;;;;4952559;28;20216;-53
2022/12/24 04:00:33;;;;;;;609.87;257.20;;;;;;;;;;4980173;28;20696;-53
2022/12/24 04:02:59;;;;;;;486.30;211.23;;;;;;;;;;4962496;28;20808;-53
2022/12/24 04:05:25;;;;;;;640.00;284.53;;;;;;;;;;4977397;28;20217;-53
2022/12/24 04:07:51;;;;;;;551.53;234.53;;;;;;;;;;4973430;28;20282;-54
2022/12/24 04:10:18;;;;;;;566.37;250.20;;;;;;;;;;4970279;28;20634;-54
2022/12/24 04:12:44;;;;;;;590.67;255.93;;;;;;;;;;4986820;28;20232;-53
2022/12/24 04:15:10;;;;;;;558.77;240.63;;;;;;;;;;4988211;28;20274;-53
2022/12/24 04:17:36;;;;;;;539.33;228.93;;;;;;;;;;4974627;28;20646;-54
2022/12/24 04:20:03;;;;;;;527.07;217.83;;;;;;;;;;4963706;28;20337;-52
2022/12/24 04:22:29;;;;;;;742.50;327.87;;;;;;;;;;4961943;28;20184;-52
2022/12/24 04:24:55;;;;;;;670.10;294.00;;;;;;;;;;4953507;28;20296;-53
2022/12/24 04:27:22;;;;;;;659.97;284.60;;;;;;;;;;4970236;28;20254;-54
2022/12/24 04:29:49;;;;;;;658.50;284.27;;;;;;;;;;4947088;28;21989;-53
2022/12/24 04:32:15;;;;;;;596.07;253.57;;;;;;;;;;4968167;28;20720;-53
2022/12/24 04:34:41;;;;;;;718.53;313.63;;;;;;;;;;4967288;28;20255;-55
2022/12/24 04:37:07;;;;;;;570.13;240.20;;;;;;;;;;4977730;28;20706;-53
2022/12/24 04:39:33;;;;;;;437.73;193.67;;;;;;;;;;4976427;28;20217;-53
2022/12/24 04:41:59;;;;;;;646.87;275.80;;;;;;;;;;4969519;28;20304;-53
2022/12/24 04:44:26;;;;;;;611.97;267.97;;;;;;;;;;4931538;28;20225;-54
2022/12/24 04:46:52;;;;;;;596.27;254.27;;;;;;;;;;4978311;28;20454;-53
2022/12/24 04:49:19;;;;;;;625.30;276.10;;;;;;;;;;4959549;28;20384;-54
2022/12/24 04:51:46;;;;;;;630.53;266.43;;;;;;;;;;4974244;28;20323;-53
2022/12/24 04:54:12;;;;;;;599.53;258.23;;;;;;;;;;4959809;28;20236;-54
2022/12/24 04:56:38;;;;;;;685.43;297.20;;;;;;;;;;4973867;28;20319;-53
2022/12/24 04:59:04;;;;;;;501.10;214.27;;;;;;;;;;4970488;28;20232;-53
2022/12/24 05:01:31;;;;;;;623.53;275.10;;;;;;;;;;4979270;28;20602;-53
2022/12/24 05:03:58;;;;;;;713.27;314.57;;;;;;;;;;4972132;28;20386;-52
2022/12/24 05:06:29;;;;;;;677.63;306.17;;;;;;;;;;4943136;28;20240;-52
2022/12/24 05:08:57;;;;;;;699.13;313.40;;;;;;;;;;4970959;28;20224;-53
2022/12/24 05:11:23;;;;;;;592.03;260.87;;;;;;;;;;4963348;28;20217;-52
2022/12/24 05:13:49;;;;;;;461.57;204.00;;;;;;;;;;4975125;28;20479;-53
2022/12/24 05:16:17;;;;;;;563.20;243.30;;;;;;;;;;4969156;28;21336;-53
2022/12/24 05:18:43;;;;;;;685.53;303.23;;;;;;;;;;4976331;28;20236;-53
2022/12/24 05:21:10;;;;;;;614.40;269.10;;;;;;;;;;4968610;28;20217;-53
2022/12/24 05:26:27;;;;;;;656.80;292.20;;;;;;;;;;4996401;28;20767;-53
2022/12/24 05:28:57;;;;;;;572.40;248.60;;;;;;;;;;4960743;28;24817;-54
2022/12/24 05:31:24;;;;;;;653.40;283.10;;;;;;;;;;4979967;28;20730;-53
2022/12/24 05:33:50;;;;;;;608.70;260.83;;;;;;;;;;4971498;28;20217;-53
2022/12/24 05:36:16;;;;;;;557.97;238.80;;;;;;;;;;4971880;28;20547;-53
2022/12/24 05:38:42;;;;;;;691.77;301.73;;;;;;;;;;4983100;28;20706;-52
2022/12/24 05:41:08;;;;;;;592.87;252.03;;;;;;;;;;4984714;28;20340;-53
2022/12/24 05:43:35;;;;;;;615.30;257.43;;;;;;;;;;4984073;28;20327;-53
2022/12/24 05:46:03;;;;;;;545.77;231.70;;;;;;;;;;4982948;28;20177;-53
2022/12/24 05:48:29;;;;;;;633.23;269.97;;;;;;;;;;4959776;28;20407;-53
2022/12/24 05:50:55;;;;;;;476.27;204.97;;;;;;;;;;4972934;28;20224;-53
2022/12/24 05:53:21;;;;;;;557.10;230.70;;;;;;;;;;4983052;28;20236;-53
2022/12/24 05:55:48;;;;;;;614.13;264.63;;;;;;;;;;4963510;28;20265;-53
2022/12/24 05:58:14;;;;;;;488.10;208.10;;;;;;;;;;4961147;28;21062;-53
2022/12/24 06:00:40;;;;;;;650.30;282.43;;;;;;;;;;4968711;28;20216;-52
2022/12/24 06:03:07;;;;;;;632.00;275.63;;;;;;;;;;4973886;28;20593;-52
2022/12/24 06:05:33;;;;;;;682.77;299.07;;;;;;;;;;4964035;28;20350;-54
2022/12/24 06:07:59;;;;;;;573.10;245.30;;;;;;;;;;4964733;28;20608;-53
2022/12/24 06:10:25;;;;;;;530.17;229.87;;;;;;;;;;4960636;28;20406;-53
2022/12/24 06:12:51;;;;;;;464.63;195.37;;;;;;;;;;4970013;28;20220;-53
2022/12/24 06:15:17;;;;;;;668.73;280.87;;;;;;;;;;4971265;28;25163;-54
2022/12/24 06:17:43;;;;;;;656.27;279.73;;;;;;;;;;4970738;28;20216;-54
2022/12/24 06:20:10;;;;;;;511.97;224.23;;;;;;;;;;4959934;28;20213;-53
2022/12/24 06:22:36;;;;;;;643.43;281.27;;;;;;;;;;4972876;28;20951;-53
2022/12/24 06:25:02;;;;;;;426.93;183.07;;;;;;;;;;4975802;28;20347;-53
2022/12/24 06:27:28;;;;;;;567.53;247.10;;;;;;;;;;4949216;28;20221;-53
2022/12/24 06:29:54;;;;;;;465.60;201.43;;;;;;;;;;4950921;28;20272;-53
2022/12/24 06:32:20;;;;;;;463.67;199.47;;;;;;;;;;4977056;28;20220;-53
2022/12/24 06:34:47;;;;;;;711.03;304.57;;;;;;;;;;4976885;28;20788;-53
2022/12/24 06:37:17;;;;;;;586.47;254.93;;;;;;;;;;4957683;28;20546;-53
2022/12/24 06:39:44;;;;;;;673.47;292.80;;;;;;;;;;4962043;28;20242;-53
2022/12/24 06:42:12;;;;;;;454.10;194.27;;;;;;;;;;4973014;28;20214;-52
2022/12/24 06:44:38;;;;;;;710.07;306.13;;;;;;;;;;4967173;28;20863;-56
2022/12/24 06:47:05;;;;;;;685.70;297.13;;;;;;;;;;4972978;28;20223;-55
2022/12/24 06:49:31;;;;;;;585.43;254.90;;;;;;;;;;4969000;28;20245;-55
2022/12/24 06:51:57;;;;;;;707.37;305.97;;;;;;;;;;4963538;28;20193;-55
2022/12/24 06:54:23;;;;;;;647.13;273.93;;;;;;;;;;4964481;28;20247;-55
2022/12/24 06:56:49;;;;;;;608.77;262.90;;;;;;;;;;4959580;28;20264;-55
2022/12/24 06:59:16;;;;;;;562.00;235.97;;;;;;;;;;4983874;28;20229;-55
2022/12/24 07:01:42;;;;;;;733.53;307.67;;;;;;;;;;4974315;28;20196;-55
2022/12/24 07:04:08;;;;;;;555.00;235.60;;;;;;;;;;4952923;28;20205;-55
2022/12/24 07:06:34;;;;;;;540.83;220.03;;;;;;;;;;4955287;28;21071;-55
2022/12/24 07:09:00;;;;;;;522.53;220.83;;;;;;;;;;4975201;28;20219;-55
2022/12/24 07:11:27;;;;;;;712.13;313.60;;;;;;;;;;4947337;28;20735;-55
2022/12/24 07:13:54;;;;;;;704.40;311.60;;;;;;;;;;4950767;28;20259;-54
2022/12/24 07:16:20;;;;;;;580.83;250.67;;;;;;;;;;4959986;28;20466;-56
2022/12/24 07:18:46;;;;;;;655.20;286.17;;;;;;;;;;4970306;28;20283;-55
2022/12/24 07:21:13;;;;;;;605.37;257.63;;;;;;;;;;4967143;28;20239;-55
2022/12/24 07:23:39;;;;;;;498.70;209.87;;;;;;;;;;4979288;28;20213;-54
2022/12/24 07:26:06;;;;;;;481.70;205.77;;;;;;;;;;4984806;28;20965;-55
2022/12/24 07:28:32;;;;;;;592.13;255.47;;;;;;;;;;4966152;28;20224;-55
2022/12/24 07:30:59;;;;;;;650.83;277.37;;;;;;;;;;4973186;28;20313;-54
2022/12/24 07:33:26;;;;;;;624.03;268.87;;;;;;;;;;4971721;28;20263;-55
2022/12/24 07:36:02;;;;;;;594.70;259.73;;;;;;;;;;4951626;28;20233;-55
2022/12/24 07:38:29;;;;;;;665.70;296.90;;;;;;;;;;4916846;28;20299;-55
2022/12/24 07:40:56;;;;;;;725.43;316.70;;;;;;;;;;4962886;28;20228;-54
2022/12/24 07:43:22;;;;;;;790.97;342.30;;;;;;;;;;4962711;28;20277;-55
2022/12/24 07:45:49;;;;;;;561.07;250.33;;;;;;;;;;4961098;28;20265;-55
2022/12/24 07:48:16;;;;;;;408.50;177.50;;;;;;;;;;4983477;28;20220;-55
2022/12/24 07:50:42;;;;;;;581.10;250.07;;;;;;;;;;4959748;28;20322;-54
2022/12/24 07:53:08;;;;;;;676.93;306.10;;;;;;;;;;4975689;28;20584;-55
2022/12/24 07:55:35;;;;;;;705.77;317.73;;;;;;;;;;4924795;28;20196;-55
2022/12/24 07:58:01;;;;;;;594.40;255.40;;;;;;;;;;4972693;28;20247;-55
2022/12/24 08:00:28;;;;;;;583.00;247.27;;;;;;;;;;4953006;28;20419;-58
2022/12/24 08:02:54;;;;;;;454.60;196.50;;;;;;;;;;4963881;28;20236;-55
2022/12/24 08:05:20;;;;;;;573.13;243.27;;;;;;;;;;4986949;28;20206;-54
2022/12/24 08:07:49;;;;;;;717.30;320.70;;;;;;;;;;4957285;28;20812;-56
2022/12/24 08:10:19;;;;;;;653.33;282.73;;;;;;;;;;4947393;28;20176;-55
2022/12/24 08:12:47;;;;;;;663.03;287.07;;;;;;;;;;4947224;28;20353;-55
2022/12/24 08:15:13;;;;;;;719.20;284.67;;;;;;;;;;4949941;28;20213;-54
2022/12/24 08:17:39;;;;;;;685.03;270.57;;;;;;;;;;4962495;28;20433;-55
2022/12/24 08:20:06;;;;;;;676.33;261.13;;;;;;;;;;4933978;28;20228;-56
2022/12/24 08:22:33;;;;;;;673.90;262.73;;;;;;;;;;4930868;28;21547;-51
2022/12/24 08:24:59;;;;;;;614.40;264.27;;;;;;;;;;4938449;28;20177;-51
2022/12/24 08:27:25;;;;;;;737.33;303.13;;;;;;;;;;4958952;28;20208;-51
2022/12/24 08:29:51;;;;;;;767.20;279.63;;;;;;;;;;4957914;28;20738;-53
2022/12/24 08:32:18;;;;;;;742.53;306.47;;;;;;;;;;4962779;28;20209;-52
2022/12/24 08:34:44;;;;;;;493.50;215.80;;;;;;;;;;4966246;28;20480;-53
2022/12/24 08:37:10;;;;;;;629.53;269.50;;;;;;;;;;4971004;28;20272;-52
2022/12/24 08:39:37;;;;;;;639.27;261.37;;;;;;;;;;4963106;28;20211;-52
2022/12/24 08:42:03;;;;;;;705.93;272.67;;;;;;;;;;4970861;28;20263;-52
2022/12/24 08:44:30;;;;;;;616.17;240.13;;;;;;;;;;4954202;28;20236;-52
2022/12/24 08:46:56;;;;;;;705.40;290.23;;;;;;;;;;4956380;28;20821;-52
2022/12/24 08:49:22;;;;;;;760.53;311.53;;;;;;;;;;4968409;28;20207;-52
2022/12/24 08:51:48;;;;;;;541.93;214.13;;;;;;;;;;4964559;28;20312;-52
2022/12/24 08:54:14;;;;;;;724.03;284.70;;;;;;;;;;4951468;28;20264;-57
2022/12/24 08:56:40;;;;;;;660.77;257.60;;;;;;;;;;4927639;28;20213;-56
2022/12/24 08:59:06;;;;;;;537.03;210.03;;;;;;;;;;4962226;28;20238;-57
2022/12/24 09:01:33;;;;;;;696.93;283.10;;;;;;;;;;4935006;28;20423;-56
2022/12/24 09:04:00;;;;;;;577.90;232.93;;;;;;;;;;4959201;28;20820;-57
2022/12/24 09:06:26;;;;;;;724.60;286.13;;;;;;;;;;4975899;28;20405;-58
2022/12/24 09:08:53;;;;;;;702.10;266.73;;;;;;;;;;4921690;28;22073;-58
2022/12/24 09:11:19;;;;;;;915.60;376.77;;;;;;;;;;4918583;28;20434;-57
2022/12/24 09:13:46;;;;;;;730.50;319.77;;;;;;;;;;4946367;28;20391;-58
2022/12/24 09:16:12;;;;;;;633.80;273.73;;;;;;;;;;4970658;28;20176;-56
2022/12/24 09:18:38;;;;;;;476.10;204.00;;;;;;;;;;4980415;28;20774;-56
2022/12/24 09:21:06;;;;;;;505.53;216.00;;;;;;;;;;4969138;28;20283;-55
2022/12/24 09:23:35;;;;;;;657.67;282.70;;;;;;;;;;4974922;28;20219;-56
2022/12/24 09:26:04;;;;;;;545.77;238.63;;;;;;;;;;4979794;28;20652;-56
2022/12/24 09:28:30;;;;;;;659.50;292.20;;;;;;;;;;4983252;28;20372;-57
2022/12/24 09:31:00;;;;;;;516.77;217.70;;;;;;;;;;4958837;28;20196;-56
2022/12/24 09:33:27;;;;;;;542.40;237.00;;;;;;;;;;4982059;28;20229;-56
2022/12/24 09:35:53;;;;;;;605.07;264.47;;;;;;;;;;4976494;28;20307;-57
2022/12/24 09:38:21;;;;;;;667.10;293.07;;;;;;;;;;4970596;28;20299;-56
2022/12/24 09:40:47;;;;;;;461.37;194.93;;;;;;;;;;4960478;28;20204;-57
2022/12/24 09:43:16;;;;;;;612.60;261.07;;;;;;;;;;4976320;28;22841;-57
2022/12/24 09:46:06;;;;;;;649.27;284.20;;;;;;;;;;4982717;28;20220;-56
2022/12/24 09:48:38;;;;;;;570.20;268.13;;;;;;;;;;4979917;23;20293;-50
2022/12/24 09:51:07;;;;;;;637.50;296.40;;;;;;;;;;4993309;28;20227;-49
2022/12/24 09:53:36;;;;;;;588.00;278.00;;;;;;;;;;4987024;28;20288;-49
2022/12/24 09:56:05;;;;;;;511.33;243.90;;;;;;;;;;4995651;28;20291;-50
2022/12/24 09:58:38;;;;;;;483.43;230.60;;;;;;;;;;4996552;28;20652;-50
2022/12/24 10:01:04;;;;;;;625.57;284.90;;;;;;;;;;5004808;28;20210;-51
2022/12/24 10:03:31;;;;;;;670.47;317.57;;;;;;;;;;4979168;28;20279;-49
2022/12/24 10:06:04;;;;;;;614.30;288.20;;;;;;;;;;4990319;28;20256;-49
2022/12/24 10:08:50;;;;;;;608.13;283.47;;;;;;;;;;4998281;28;20365;-50
2022/12/24 10:11:21;;;;;;;540.00;252.50;;;;;;;;;;4991367;28;20261;-50
2022/12/24 10:13:47;;;;;;;697.23;330.20;;;;;;;;;;5001058;28;21136;-49
2022/12/24 10:16:16;;;;;;;625.80;302.60;;;;;;;;;;4986250;28;20191;-50
2022/12/24 10:18:42;;;;;;;445.80;202.47;;;;;;;;;;4990734;28;20227;-50
2022/12/24 10:21:11;;;;;;;573.23;258.53;;;;;;;;;;4993378;28;20882;-51
2022/12/24 10:23:50;;;;;;;521.67;241.33;;;;;;;;;;4983169;28;20537;-50
2022/12/24 10:26:17;;;;;;;510.83;247.03;;;;;;;;;;4999566;28;20230;-51
2022/12/24 10:28:48;;;;;;;722.33;342.00;;;;;;;;;;4985135;28;20349;-51
2022/12/24 10:31:15;;;;;;;609.10;284.87;;;;;;;;;;4982211;28;20192;-51
2022/12/24 10:33:42;;;;;;;513.63;241.40;;;;;;;;;;4983945;28;20222;-51
2022/12/24 10:36:10;;;;;;;587.47;279.63;;;;;;;;;;4981059;28;20696;-51
2022/12/24 10:38:36;;;;;;;553.63;257.40;;;;;;;;;;4980577;28;20219;-51
2022/12/24 10:41:03;;;;;;;676.20;327.93;;;;;;;;;;4986511;28;20656;-52
2022/12/24 10:43:29;;;;;;;618.57;292.87;;;;;;;;;;4979935;28;20207;-49
2022/12/24 10:46:02;;;;;;;592.90;275.10;;;;;;;;;;4978312;28;21121;-50
2022/12/24 10:48:30;;;;;;;468.07;219.47;;;;;;;;;;4978426;28;20220;-51
2022/12/24 10:50:58;;;;;;;531.53;248.23;;;;;;;;;;4984021;28;20264;-50
2022/12/24 10:53:31;;;;;;;587.93;274.50;;;;;;;;;;4967528;28;20360;-50
2022/12/24 10:56:02;;;;;;;512.37;247.27;;;;;;;;;;4977430;28;20228;-50
2022/12/24 10:58:28;;;;;;;629.47;295.60;;;;;;;;;;4978960;28;20510;-50
2022/12/24 11:00:54;;;;;;;532.67;250.90;;;;;;;;;;4996487;28;20303;-51
2022/12/24 11:03:34;;;;;;;618.67;301.77;;;;;;;;;;4986621;28;20748;-51
2022/12/24 11:06:01;;;;;;;565.47;254.40;;;;;;;;;;5002361;28;20307;-51
2022/12/24 11:08:27;;;;;;;569.80;263.00;;;;;;;;;;5000366;28;20290;-51
2022/12/24 11:10:55;;;;;;;456.87;217.13;;;;;;;;;;4989715;28;20319;-50
2022/12/24 11:13:41;;;;;;;556.50;265.50;;;;;;;;;;4989711;28;20272;-51
2022/12/24 11:16:28;;;;;;;609.80;295.03;;;;;;;;;;4977209;28;20228;-50
2022/12/24 11:18:55;;;;;;;622.80;296.73;;;;;;;;;;4963105;28;20306;-50
2022/12/24 11:21:24;;;;;;;603.77;287.73;;;;;;;;;;4972628;28;20933;-50
2022/12/24 11:24:08;;;;;;;564.10;267.10;;;;;;;;;;4981605;28;20224;-50
2022/12/24 11:26:34;;;;;;;609.93;287.30;;;;;;;;;;4980375;28;20225;-49
2022/12/24 11:29:05;;;;;;;573.27;270.33;;;;;;;;;;4976187;28;20213;-50
2022/12/24 11:31:34;;;;;;;541.73;258.77;;;;;;;;;;4982064;28;20192;-50
2022/12/24 11:34:00;;;;;;;539.40;248.73;;;;;;;;;;4989192;28;20200;-50
2022/12/24 11:36:29;;;;;;;518.43;241.97;;;;;;;;;;4992525;28;20282;-50
2022/12/24 11:38:57;;;;;;;728.83;350.40;;;;;;;;;;4977321;28;20769;-50
2022/12/24 11:41:24;;;;;;;471.67;220.97;;;;;;;;;;4975615;28;20213;-50
2022/12/24 11:43:51;;;;;;;573.63;270.00;;;;;;;;;;4979096;28;20404;-50
2022/12/24 11:46:37;;;;;;;466.90;221.30;;;;;;;;;;4984858;28;20518;-50
2022/12/24 11:49:05;;;;;;;632.07;302.47;;;;;;;;;;4973643;28;20286;-50
2022/12/24 11:51:31;;;;;;;495.80;236.87;;;;;;;;;;4981518;28;20292;-49
2022/12/24 11:54:06;;;;;;;687.07;318.37;;;;;;;;;;4982510;28;20762;-50
2022/12/24 11:56:34;;;;;;;638.07;305.27;;;;;;;;;;4978657;28;20364;-49
2022/12/24 11:59:10;;;;;;;646.57;302.80;;;;;;;;;;4975657;28;20243;-50
2022/12/24 12:01:44;;;;;;;548.80;251.17;;;;;;;;;;4984245;28;20184;-50
2022/12/24 12:04:14;;;;;;;613.37;282.20;;;;;;;;;;4988018;28;20196;-50
2022/12/24 12:06:46;;;;;;;618.70;295.80;;;;;;;;;;4977509;28;20208;-49
2022/12/24 12:09:16;;;;;;;590.23;266.97;;;;;;;;;;4982942;28;20892;-49
2022/12/24 12:11:43;;;;;;;470.87;216.80;;;;;;;;;;4987899;28;20505;-49
2022/12/24 12:14:14;;;;;;;523.67;236.53;;;;;;;;;;5003885;28;21296;-49
2022/12/24 12:16:59;;;;;;;564.13;261.77;;;;;;;;;;4998970;28;20180;-49
2022/12/24 12:19:27;;;;;;;647.93;300.33;;;;;;;;;;5002080;28;20226;-50
2022/12/24 12:21:53;;;;;;;507.63;231.30;;;;;;;;;;5007753;28;20208;-49
2022/12/24 12:24:22;;;;;;;438.37;211.90;;;;;;;;;;4980866;28;20748;-50
2022/12/24 12:26:48;;;;;;;622.07;287.83;;;;;;;;;;4987350;28;20215;-49
2022/12/24 12:29:26;;;;;;;530.63;246.87;;;;;;;;;;4985888;28;20211;-49
2022/12/24 12:31:58;;;;;;;643.73;314.97;;;;;;;;;;4985703;28;20227;-49
2022/12/24 12:34:31;;;;;;;602.90;288.20;;;;;;;;;;4998497;28;20441;-49
2022/12/24 12:37:05;;;;;;;563.10;252.93;;;;;;;;;;4993659;28;20442;-49
2022/12/24 12:39:31;;;;;;;524.07;244.63;;;;;;;;;;4986373;28;20791;-49
2022/12/24 12:42:15;;;;;;;592.33;284.83;;;;;;;;;;4985036;28;20814;-49
2022/12/24 12:44:47;;;;;;;567.13;263.23;;;;;;;;;;4986214;28;20219;-50
2022/12/24 12:47:29;;;;;;;533.10;251.00;;;;;;;;;;4997552;28;20300;-49
2022/12/24 12:50:00;;;;;;;624.73;293.33;;;;;;;;;;4985771;28;20309;-50
2022/12/24 12:52:33;;;;;;;603.03;280.37;;;;;;;;;;4976667;28;20185;-50
2022/12/24 12:55:10;;;;;;;592.27;278.97;;;;;;;;;;4983280;28;20216;-50
2022/12/24 12:57:37;;;;;;;591.30;278.93;;;;;;;;;;4990586;28;20310;-50
2022/12/24 13:00:09;;;;;;;628.30;298.63;;;;;;;;;;4972981;28;20571;-49
2022/12/24 13:02:35;;;;;;;562.20;276.77;;;;;;;;;;4989328;28;20740;-49
2022/12/24 13:05:14;;;;;;;631.93;300.07;;;;;;;;;;4970553;28;20824;-50
2022/12/24 13:07:40;;;;;;;462.17;217.00;;;;;;;;;;4987301;28;20652;-49
2022/12/24 13:10:15;;;;;;;660.50;321.67;;;;;;;;;;4976540;28;20524;-49
2022/12/24 13:12:52;;;;;;;607.83;299.00;;;;;;;;;;4987992;28;20313;-50
2022/12/24 13:15:30;;;;;;;602.47;294.20;;;;;;;;;;4983074;28;20223;-50
2022/12/24 13:17:55;;;;;;;672.90;326.40;;;;;;;;;;4982577;28;20715;-54
2022/12/24 13:20:29;;;;;;;508.73;236.27;;;;;;;;;;4987907;28;20601;-50
2022/12/24 13:22:55;;;;;;;595.77;278.93;;;;;;;;;;4991890;28;20297;-50
2022/12/24 13:25:23;;;;;;;541.53;248.90;;;;;;;;;;4982798;28;20838;-50
2022/12/24 13:27:49;;;;;;;545.27;259.67;;;;;;;;;;4989224;28;21433;-49
2022/12/24 13:30:33;;;;;;;660.07;311.27;;;;;;;;;;4983104;28;20319;-51
2022/12/24 13:32:59;;;;;;;674.87;330.97;;;;;;;;;;4990025;28;20698;-48
2022/12/24 13:35:26;;;;;;;606.60;291.00;;;;;;;;;;4967459;28;20318;-48
2022/12/24 13:37:52;;;;;;;441.90;204.60;;;;;;;;;;4990364;28;20607;-51
2022/12/24 13:40:23;;;;;;;693.50;332.43;;;;;;;;;;4983382;28;20211;-50
2022/12/24 13:42:51;;;;;;;582.33;271.83;;;;;;;;;;4982278;28;20314;-51
2022/12/24 13:45:32;;;;;;;572.30;252.07;;;;;;;;;;4979243;28;20211;-49
2022/12/24 13:47:58;;;;;;;500.50;224.90;;;;;;;;;;4973889;28;21423;-50
2022/12/24 13:50:29;;;;;;;679.07;304.90;;;;;;;;;;4980982;28;20215;-50
2022/12/24 13:52:55;;;;;;;523.70;251.07;;;;;;;;;;4988643;28;20365;-50
2022/12/24 13:55:21;;;;;;;659.70;321.50;;;;;;;;;;4982736;28;20238;-50
2022/12/24 13:57:56;;;;;;;583.83;274.37;;;;;;;;;;4981363;28;20247;-50
2022/12/24 14:00:22;;;;;;;460.17;217.10;;;;;;;;;;4988545;28;20224;-49
2022/12/24 14:02:47;;;;;;;492.13;238.03;;;;;;;;;;4996114;28;20220;-50
2022/12/24 14:05:19;;;;;;;474.37;227.10;;;;;;;;;;4990259;28;20840;-50
2022/12/24 14:07:47;;;;;;;632.23;299.00;;;;;;;;;;5002011;28;20256;-50
2022/12/24 14:10:24;;;;;;;474.47;225.10;;;;;;;;;;4997716;28;20184;-50